sensor_id;sensor_type;location;lat;lon;timestamp;pressure;altitude;pressure_sealevel;temperature;humidity
53546;BME280;39432;51.902;10.844;2023-01-10T00:02:03;98744.16;;;6.08;100.00
53546;BME280;39432;51.902;10.844;2023-01-10T00:04:35;98760.81;;;5.95;100.00
53546;BME280;39432;51.902;10.844;2023-01-10T00:07:05;98748.31;;;5.94;100.00
53546;BME280;39432;51.902;10.844;2023-01-10T00:09:34;98746.97;;;5.97;100.00
53546;BME280;39432;51.902;10.844;2023-01-10T00:12:04;98757.66;;;6.03;100.00
53546;BME280;39432;51.902;10.844;2023-01-10T00:14:47;98751.72;;;6.06;100.00
53546;BME280;39432;51.902;10.844;2023-01-10T00:17:16;98752.56;;;6.07;100.00
53546;BME280;39432;51.902;10.844;2023-01-10T00:19:49;98757.72;;;6.08;100.00
53546;BME280;39432;51.902;10.844;2023-01-10T00:22:18;98772.31;;;6.02;100.00
53546;BME280;39432;51.902;10.844;2023-01-10T00:24:51;98769.50;;;5.97;100.00
53546;BME280;39432;51.902;10.844;2023-01-10T00:27:21;98777.25;;;6.05;100.00
53546;BME280;39432;51.902;10.844;2023-01-10T00:29:51;98786.28;;;6.11;100.00
53546;BME280;39432;51.902;10.844;2023-01-10T00:32:21;98784.69;;;6.32;100.00
53546;BME280;39432;51.902;10.844;2023-01-10T00:34:53;98793.25;;;6.24;100.00
53546;BME280;39432;51.902;10.844;2023-01-10T00:37:23;98800.25;;;6.20;100.00
53546;BME280;39432;51.902;10.844;2023-01-10T00:39:53;98796.72;;;6.58;100.00
53546;BME280;39432;51.902;10.844;2023-01-10T00:42:22;98809.44;;;6.36;100.00
53546;BME280;39432;51.902;10.844;2023-01-10T00:45:05;98809.47;;;5.85;100.00
53546;BME280;39432;51.902;10.844;2023-01-10T00:47:37;98808.66;;;6.01;100.00
53546;BME280;39432;51.902;10.844;2023-01-10T00:50:10;98820.31;;;5.85;100.00
53546;BME280;39432;51.902;10.844;2023-01-10T00:52:39;98814.59;;;5.98;100.00
53546;BME280;39432;51.902;10.844;2023-01-10T00:55:09;98821.97;;;5.86;100.00
53546;BME280;39432;51.902;10.844;2023-01-10T00:57:38;98829.38;;;5.74;100.00
53546;BME280;39432;51.902;10.844;2023-01-10T01:00:09;98837.91;;;5.66;100.00
53546;BME280;39432;51.902;10.844;2023-01-10T01:02:39;98834.97;;;5.84;100.00
53546;BME280;39432;51.902;10.844;2023-01-10T01:05:11;98846.53;;;5.63;100.00
53546;BME280;39432;51.902;10.844;2023-01-10T01:07:41;98844.47;;;5.70;100.00
53546;BME280;39432;51.902;10.844;2023-01-10T01:10:10;98849.34;;;5.68;100.00
53546;BME280;39432;51.902;10.844;2023-01-10T01:12:56;98854.34;;;5.59;100.00
53546;BME280;39432;51.902;10.844;2023-01-10T01:15:27;98856.97;;;5.71;100.00
53546;BME280;39432;51.902;10.844;2023-01-10T01:17:56;98870.72;;;5.81;100.00
53546;BME280;39432;51.902;10.844;2023-01-10T01:20:29;98873.53;;;5.86;100.00
53546;BME280;39432;51.902;10.844;2023-01-10T01:22:59;98880.13;;;5.90;100.00
53546;BME280;39432;51.902;10.844;2023-01-10T01:25:28;98895.16;;;5.81;100.00
53546;BME280;39432;51.902;10.844;2023-01-10T01:27:58;98900.59;;;5.81;100.00
53546;BME280;39432;51.902;10.844;2023-01-10T01:30:27;98903.41;;;5.86;100.00
53546;BME280;39432;51.902;10.844;2023-01-10T01:32:57;98905.25;;;5.97;100.00
53546;BME280;39432;51.902;10.844;2023-01-10T01:35:29;98910.47;;;5.87;100.00
53546;BME280;39432;51.902;10.844;2023-01-10T01:37:59;98923.47;;;5.85;100.00
53546;BME280;39432;51.902;10.844;2023-01-10T01:40:29;98932.69;;;5.84;100.00
53546;BME280;39432;51.902;10.844;2023-01-10T01:42:58;98926.34;;;6.07;100.00
53546;BME280;39432;51.902;10.844;2023-01-10T01:45:36;98933.56;;;6.01;100.00
53546;BME280;39432;51.902;10.844;2023-01-10T01:48:15;98948.97;;;6.13;100.00
53546;BME280;39432;51.902;10.844;2023-01-10T01:50:52;98949.53;;;6.15;100.00
53546;BME280;39432;51.902;10.844;2023-01-10T01:53:28;98953.59;;;6.29;100.00
53546;BME280;39432;51.902;10.844;2023-01-10T01:56:02;98958.94;;;6.24;100.00
53546;BME280;39432;51.902;10.844;2023-01-10T01:58:39;98960.31;;;6.10;100.00
53546;BME280;39432;51.902;10.844;2023-01-10T02:01:10;98964.69;;;6.11;100.00
53546;BME280;39432;51.902;10.844;2023-01-10T02:03:42;98970.16;;;6.27;100.00
53546;BME280;39432;51.902;10.844;2023-01-10T02:06:17;98968.34;;;6.33;100.00
53546;BME280;39432;51.902;10.844;2023-01-10T02:08:51;98970.88;;;6.23;100.00
53546;BME280;39432;51.902;10.844;2023-01-10T02:11:23;98971.25;;;6.15;100.00
53546;BME280;39432;51.902;10.844;2023-01-10T02:13:53;98975.03;;;6.14;100.00
53546;BME280;39432;51.902;10.844;2023-01-10T02:16:23;98983.28;;;6.19;100.00
53546;BME280;39432;51.902;10.844;2023-01-10T02:18:52;98983.28;;;6.19;100.00
53546;BME280;39432;51.902;10.844;2023-01-10T02:21:42;98981.81;;;6.28;100.00
53546;BME280;39432;51.902;10.844;2023-01-10T02:24:36;98984.28;;;6.29;100.00
53546;BME280;39432;51.902;10.844;2023-01-10T02:27:22;98987.16;;;6.23;100.00
53546;BME280;39432;51.902;10.844;2023-01-10T02:30:20;98979.28;;;6.38;100.00
53546;BME280;39432;51.902;10.844;2023-01-10T02:32:59;98992.38;;;6.41;100.00
53546;BME280;39432;51.902;10.844;2023-01-10T02:35:47;98986.00;;;6.19;100.00
53546;BME280;39432;51.902;10.844;2023-01-10T02:38:31;99000.56;;;6.13;100.00
53546;BME280;39432;51.902;10.844;2023-01-10T02:41:09;99010.25;;;6.08;100.00
53546;BME280;39432;51.902;10.844;2023-01-10T02:43:46;99011.78;;;6.16;100.00
53546;BME280;39432;51.902;10.844;2023-01-10T02:46:20;99023.84;;;6.08;100.00
53546;BME280;39432;51.902;10.844;2023-01-10T02:48:56;99031.78;;;6.27;100.00
53546;BME280;39432;51.902;10.844;2023-01-10T02:51:27;99039.44;;;6.30;100.00
53546;BME280;39432;51.902;10.844;2023-01-10T02:54:01;99035.84;;;6.58;100.00
53546;BME280;39432;51.902;10.844;2023-01-10T02:56:55;99044.59;;;6.60;100.00
53546;BME280;39432;51.902;10.844;2023-01-10T02:59:41;99049.13;;;6.54;100.00
53546;BME280;39432;51.902;10.844;2023-01-10T03:02:28;99054.13;;;6.46;100.00
53546;BME280;39432;51.902;10.844;2023-01-10T03:05:10;99069.59;;;6.45;100.00
53546;BME280;39432;51.902;10.844;2023-01-10T03:07:50;99073.25;;;6.68;100.00
53546;BME280;39432;51.902;10.844;2023-01-10T03:10:24;99083.75;;;6.47;100.00
53546;BME280;39432;51.902;10.844;2023-01-10T03:13:01;99082.81;;;6.25;100.00
53546;BME280;39432;51.902;10.844;2023-01-10T03:15:35;99084.84;;;6.18;100.00
53546;BME280;39432;51.902;10.844;2023-01-10T03:18:09;99078.03;;;6.03;100.00
53546;BME280;39432;51.902;10.844;2023-01-10T03:20:45;99099.66;;;6.10;100.00
53546;BME280;39432;51.902;10.844;2023-01-10T03:23:17;99102.13;;;6.12;100.00
53546;BME280;39432;51.902;10.844;2023-01-10T03:25:48;99106.56;;;6.18;100.00
53546;BME280;39432;51.902;10.844;2023-01-10T03:28:23;99112.97;;;6.12;100.00
53546;BME280;39432;51.902;10.844;2023-01-10T03:30:57;99121.00;;;6.06;100.00
53546;BME280;39432;51.902;10.844;2023-01-10T03:33:29;99119.69;;;6.09;100.00
53546;BME280;39432;51.902;10.844;2023-01-10T03:36:14;99129.28;;;6.12;100.00
53546;BME280;39432;51.902;10.844;2023-01-10T03:38:50;99142.06;;;5.99;100.00
53546;BME280;39432;51.902;10.844;2023-01-10T03:41:32;99149.47;;;5.92;100.00
53546;BME280;39432;51.902;10.844;2023-01-10T03:44:12;99155.53;;;5.94;100.00
53546;BME280;39432;51.902;10.844;2023-01-10T03:46:58;99159.03;;;6.06;100.00
53546;BME280;39432;51.902;10.844;2023-01-10T03:49:30;99166.59;;;6.04;100.00
53546;BME280;39432;51.902;10.844;2023-01-10T03:52:04;99171.44;;;6.02;100.00
53546;BME280;39432;51.902;10.844;2023-01-10T03:54:35;99184.78;;;5.92;100.00
53546;BME280;39432;51.902;10.844;2023-01-10T03:57:05;99180.16;;;5.93;100.00
53546;BME280;39432;51.902;10.844;2023-01-10T03:59:35;99184.31;;;5.95;100.00
53546;BME280;39432;51.902;10.844;2023-01-10T04:02:04;99191.63;;;6.06;100.00
53546;BME280;39432;51.902;10.844;2023-01-10T04:04:34;99193.03;;;5.97;100.00
53546;BME280;39432;51.902;10.844;2023-01-10T04:07:06;99197.97;;;6.24;100.00
53546;BME280;39432;51.902;10.844;2023-01-10T04:09:36;99195.34;;;6.29;100.00
53546;BME280;39432;51.902;10.844;2023-01-10T04:12:06;99202.00;;;6.21;100.00
53546;BME280;39432;51.902;10.844;2023-01-10T04:14:36;99206.00;;;6.19;100.00
53546;BME280;39432;51.902;10.844;2023-01-10T04:17:05;99205.41;;;6.17;100.00
53546;BME280;39432;51.902;10.844;2023-01-10T04:19:35;99210.06;;;6.04;100.00
53546;BME280;39432;51.902;10.844;2023-01-10T04:22:07;99217.13;;;6.05;100.00
53546;BME280;39432;51.902;10.844;2023-01-10T04:24:37;99229.97;;;5.98;100.00
53546;BME280;39432;51.902;10.844;2023-01-10T04:27:07;99227.63;;;6.02;100.00
53546;BME280;39432;51.902;10.844;2023-01-10T04:29:36;99239.44;;;5.96;100.00
53546;BME280;39432;51.902;10.844;2023-01-10T04:32:06;99240.25;;;6.08;100.00
53546;BME280;39432;51.902;10.844;2023-01-10T04:34:36;99241.78;;;5.92;100.00
53546;BME280;39432;51.902;10.844;2023-01-10T04:37:08;99248.06;;;6.04;100.00
53546;BME280;39432;51.902;10.844;2023-01-10T04:39:38;99249.47;;;5.95;100.00
53546;BME280;39432;51.902;10.844;2023-01-10T04:42:07;99247.31;;;5.86;100.00
53546;BME280;39432;51.902;10.844;2023-01-10T04:44:37;99257.94;;;5.87;100.00
53546;BME280;39432;51.902;10.844;2023-01-10T04:47:07;99255.97;;;5.94;100.00
53546;BME280;39432;51.902;10.844;2023-01-10T04:49:36;99260.63;;;5.87;100.00
53546;BME280;39432;51.902;10.844;2023-01-10T04:52:09;99254.63;;;5.85;100.00
53546;BME280;39432;51.902;10.844;2023-01-10T04:54:38;99265.94;;;5.82;100.00
53546;BME280;39432;51.902;10.844;2023-01-10T04:57:08;99267.25;;;5.79;100.00
53546;BME280;39432;51.902;10.844;2023-01-10T04:59:38;99288.84;;;5.86;100.00
53546;BME280;39432;51.902;10.844;2023-01-10T05:02:07;99284.50;;;5.85;100.00
53546;BME280;39432;51.902;10.844;2023-01-10T05:04:37;99285.31;;;5.74;100.00
53546;BME280;39432;51.902;10.844;2023-01-10T05:07:09;99285.19;;;5.69;100.00
53546;BME280;39432;51.902;10.844;2023-01-10T05:09:39;99285.19;;;5.69;100.00
53546;BME280;39432;51.902;10.844;2023-01-10T05:12:09;99300.41;;;5.70;100.00
53546;BME280;39432;51.902;10.844;2023-01-10T05:14:38;99311.00;;;5.71;100.00
53546;BME280;39432;51.902;10.844;2023-01-10T05:17:08;99313.50;;;5.73;100.00
53546;BME280;39432;51.902;10.844;2023-01-10T05:19:37;99317.88;;;5.74;100.00
53546;BME280;39432;51.902;10.844;2023-01-10T05:22:10;99324.94;;;5.75;100.00
53546;BME280;39432;51.902;10.844;2023-01-10T05:24:40;99325.78;;;5.75;100.00
53546;BME280;39432;51.902;10.844;2023-01-10T05:27:09;99328.72;;;5.74;100.00
53546;BME280;39432;51.902;10.844;2023-01-10T05:29:39;99331.09;;;5.82;100.00
53546;BME280;39432;51.902;10.844;2023-01-10T05:32:09;99335.63;;;5.88;100.00
53546;BME280;39432;51.902;10.844;2023-01-10T05:34:38;99332.66;;;5.78;100.00
53546;BME280;39432;51.902;10.844;2023-01-10T05:37:10;99335.69;;;5.81;100.00
53546;BME280;39432;51.902;10.844;2023-01-10T05:39:40;99337.63;;;5.93;100.00
53546;BME280;39432;51.902;10.844;2023-01-10T05:42:10;99340.13;;;5.94;100.00
53546;BME280;39432;51.902;10.844;2023-01-10T05:44:39;99335.91;;;6.22;100.00
53546;BME280;39432;51.902;10.844;2023-01-10T05:47:09;99339.09;;;6.19;100.00
53546;BME280;39432;51.902;10.844;2023-01-10T05:49:38;99346.97;;;6.08;100.00
53546;BME280;39432;51.902;10.844;2023-01-10T05:52:10;99335.53;;;6.18;100.00
53546;BME280;39432;51.902;10.844;2023-01-10T05:54:40;99338.25;;;6.06;100.00
53546;BME280;39432;51.902;10.844;2023-01-10T05:57:10;99340.13;;;5.94;100.00
53546;BME280;39432;51.902;10.844;2023-01-10T05:59:40;99337.31;;;6.01;100.00
53546;BME280;39432;51.902;10.844;2023-01-10T06:02:10;99342.25;;;5.92;100.00
53546;BME280;39432;51.902;10.844;2023-01-10T06:04:40;99353.03;;;5.99;100.00
53546;BME280;39432;51.902;10.844;2023-01-10T06:07:12;99351.59;;;5.96;100.00
53546;BME280;39432;51.902;10.844;2023-01-10T06:09:41;99359.97;;;6.06;100.00
53546;BME280;39432;51.902;10.844;2023-01-10T06:12:12;99355.00;;;6.03;100.00
53546;BME280;39432;51.902;10.844;2023-01-10T06:14:44;99369.91;;;6.13;100.00
53546;BME280;39432;51.902;10.844;2023-01-10T06:17:14;99378.19;;;6.18;100.00
53546;BME280;39432;51.902;10.844;2023-01-10T06:19:43;99384.94;;;6.27;100.00
53546;BME280;39432;51.902;10.844;2023-01-10T06:22:15;99380.31;;;6.16;100.00
53546;BME280;39432;51.902;10.844;2023-01-10T06:24:45;99394.00;;;6.21;100.00
53546;BME280;39432;51.902;10.844;2023-01-10T06:27:15;99392.22;;;6.15;100.00
53546;BME280;39432;51.902;10.844;2023-01-10T06:29:44;99399.78;;;6.24;100.00
53546;BME280;39432;51.902;10.844;2023-01-10T06:32:14;99401.31;;;6.20;100.00
53546;BME280;39432;51.902;10.844;2023-01-10T06:34:44;99409.44;;;6.08;100.00
53546;BME280;39432;51.902;10.844;2023-01-10T06:37:16;99409.94;;;6.05;100.00
53546;BME280;39432;51.902;10.844;2023-01-10T06:39:46;99411.72;;;6.12;100.00
53546;BME280;39432;51.902;10.844;2023-01-10T06:42:16;99411.72;;;6.12;100.00
53546;BME280;39432;51.902;10.844;2023-01-10T06:44:46;99420.19;;;6.03;100.00
53546;BME280;39432;51.902;10.844;2023-01-10T06:47:16;99437.78;;;6.01;100.00
53546;BME280;39432;51.902;10.844;2023-01-10T06:49:45;99437.41;;;5.97;100.00
53546;BME280;39432;51.902;10.844;2023-01-10T06:52:18;99446.47;;;5.91;100.00
53546;BME280;39432;51.902;10.844;2023-01-10T06:54:48;99447.72;;;5.77;100.00
53546;BME280;39432;51.902;10.844;2023-01-10T06:57:18;99458.34;;;5.60;100.00
53546;BME280;39432;51.902;10.844;2023-01-10T06:59:48;99455.25;;;5.75;100.00
53546;BME280;39432;51.902;10.844;2023-01-10T07:02:18;99465.47;;;5.61;100.00
53546;BME280;39432;51.902;10.844;2023-01-10T07:04:47;99463.88;;;5.53;100.00
53546;BME280;39432;51.902;10.844;2023-01-10T07:07:20;99476.06;;;5.63;100.00
53546;BME280;39432;51.902;10.844;2023-01-10T07:09:49;99483.84;;;5.59;100.00
53546;BME280;39432;51.902;10.844;2023-01-10T07:12:19;99480.91;;;5.61;100.00
53546;BME280;39432;51.902;10.844;2023-01-10T07:14:48;99489.50;;;5.58;100.00
53546;BME280;39432;51.902;10.844;2023-01-10T07:17:18;99485.56;;;5.53;100.00
53546;BME280;39432;51.902;10.844;2023-01-10T07:19:47;99496.56;;;5.59;100.00
53546;BME280;39432;51.902;10.844;2023-01-10T07:22:20;99485.72;;;5.59;100.00
53546;BME280;39432;51.902;10.844;2023-01-10T07:24:49;99497.81;;;5.44;100.00
53546;BME280;39432;51.902;10.844;2023-01-10T07:27:20;99501.94;;;5.47;100.00
53546;BME280;39432;51.902;10.844;2023-01-10T07:29:49;99507.75;;;5.50;100.00
53546;BME280;39432;51.902;10.844;2023-01-10T07:32:19;99515.72;;;5.64;100.00
53546;BME280;39432;51.902;10.844;2023-01-10T07:34:48;99526.91;;;5.55;100.00
53546;BME280;39432;51.902;10.844;2023-01-10T07:37:21;99528.53;;;5.75;100.00
53546;BME280;39432;51.902;10.844;2023-01-10T07:39:50;99536.22;;;5.96;100.00
53546;BME280;39432;51.902;10.844;2023-01-10T07:42:20;99532.88;;;5.76;100.00
53546;BME280;39432;51.902;10.844;2023-01-10T07:44:49;99538.94;;;5.96;100.00
53546;BME280;39432;51.902;10.844;2023-01-10T07:47:19;99540.44;;;5.92;100.00
53546;BME280;39432;51.902;10.844;2023-01-10T07:49:49;99541.88;;;5.95;100.00
53546;BME280;39432;51.902;10.844;2023-01-10T07:52:21;99554.31;;;6.02;100.00
53546;BME280;39432;51.902;10.844;2023-01-10T07:54:51;99553.84;;;6.05;100.00
53546;BME280;39432;51.902;10.844;2023-01-10T07:57:21;99559.38;;;5.99;100.00
53546;BME280;39432;51.902;10.844;2023-01-10T07:59:50;99565.66;;;5.99;100.00
53546;BME280;39432;51.902;10.844;2023-01-10T08:02:20;99563.66;;;6.06;100.00
53546;BME280;39432;51.902;10.844;2023-01-10T08:04:49;99573.00;;;6.11;100.00
53546;BME280;39432;51.902;10.844;2023-01-10T08:07:22;99575.25;;;6.14;100.00
53546;BME280;39432;51.902;10.844;2023-01-10T08:09:52;99583.53;;;6.19;100.00
53546;BME280;39432;51.902;10.844;2023-01-10T08:12:21;99575.25;;;6.44;100.00
53546;BME280;39432;51.902;10.844;2023-01-10T08:14:52;99582.72;;;6.48;100.00
53546;BME280;39432;51.902;10.844;2023-01-10T08:17:22;99584.56;;;6.36;100.00
53546;BME280;39432;51.902;10.844;2023-01-10T08:19:51;99590.16;;;6.53;100.00
53546;BME280;39432;51.902;10.844;2023-01-10T08:22:23;99585.16;;;6.38;100.00
53546;BME280;39432;51.902;10.844;2023-01-10T08:24:53;99583.59;;;6.60;100.00
53546;BME280;39432;51.902;10.844;2023-01-10T08:27:23;99586.97;;;6.44;100.00
53546;BME280;39432;51.902;10.844;2023-01-10T08:29:52;99591.94;;;6.59;100.00
53546;BME280;39432;51.902;10.844;2023-01-10T08:32:22;99595.56;;;6.71;100.00
53546;BME280;39432;51.902;10.844;2023-01-10T08:34:51;99598.25;;;6.59;100.00
53546;BME280;39432;51.902;10.844;2023-01-10T08:37:23;99588.84;;;6.44;100.00
53546;BME280;39432;51.902;10.844;2023-01-10T08:39:54;99596.53;;;6.89;100.00
53546;BME280;39432;51.902;10.844;2023-01-10T08:42:23;99595.09;;;6.86;100.00
53546;BME280;39432;51.902;10.844;2023-01-10T08:44:53;99601.47;;;6.38;100.00
53546;BME280;39432;51.902;10.844;2023-01-10T08:47:27;99592.56;;;6.61;100.00
53546;BME280;39432;51.902;10.844;2023-01-10T08:49:56;99595.97;;;6.98;100.00
53546;BME280;39432;51.902;10.844;2023-01-10T08:52:29;99594.75;;;6.94;100.00
53546;BME280;39432;51.902;10.844;2023-01-10T08:54:59;99607.28;;;6.95;100.00
53546;BME280;39432;51.902;10.844;2023-01-10T08:57:28;99601.16;;;6.88;100.00
53546;BME280;39432;51.902;10.844;2023-01-10T08:59:58;99597.13;;;7.02;100.00
53546;BME280;39432;51.902;10.844;2023-01-10T09:02:28;99605.50;;;6.89;100.00
53546;BME280;39432;51.902;10.844;2023-01-10T09:04:57;99606.97;;;7.15;100.00
53546;BME280;39432;51.902;10.844;2023-01-10T09:07:29;99618.88;;;7.02;100.00
53546;BME280;39432;51.902;10.844;2023-01-10T09:09:59;99617.84;;;7.03;100.00
53546;BME280;39432;51.902;10.844;2023-01-10T09:12:29;99629.44;;;7.10;100.00
53546;BME280;39432;51.902;10.844;2023-01-10T09:15:11;99634.38;;;7.02;100.00
53546;BME280;39432;51.902;10.844;2023-01-10T09:17:41;99635.69;;;6.99;100.00
53546;BME280;39432;51.902;10.844;2023-01-10T09:20:11;99640.47;;;7.16;100.00
53546;BME280;39432;51.902;10.844;2023-01-10T09:22:43;99650.78;;;7.25;100.00
53546;BME280;39432;51.902;10.844;2023-01-10T09:25:12;99649.19;;;7.18;100.00
53546;BME280;39432;51.902;10.844;2023-01-10T09:27:42;99650.59;;;7.08;100.00
53546;BME280;39432;51.902;10.844;2023-01-10T09:30:13;99653.56;;;7.07;100.00
53546;BME280;39432;51.902;10.844;2023-01-10T09:32:42;99661.28;;;7.22;100.00
53546;BME280;39432;51.902;10.844;2023-01-10T09:35:12;99649.91;;;7.13;100.00
53546;BME280;39432;51.902;10.844;2023-01-10T09:37:44;99640.72;;;7.26;100.00
53546;BME280;39432;51.902;10.844;2023-01-10T09:40:16;99645.16;;;7.08;100.00
53546;BME280;39432;51.902;10.844;2023-01-10T09:42:57;99645.06;;;7.15;100.00
53546;BME280;39432;51.902;10.844;2023-01-10T09:45:36;99652.50;;;7.20;100.00
53546;BME280;39432;51.902;10.844;2023-01-10T09:48:12;99645.91;;;7.16;100.00
53546;BME280;39432;51.902;10.844;2023-01-10T09:50:55;99638.69;;;7.33;100.00
53546;BME280;39432;51.902;10.844;2023-01-10T09:53:33;99645.66;;;7.29;100.00
53546;BME280;39432;51.902;10.844;2023-01-10T09:56:06;99651.22;;;7.10;100.00
53546;BME280;39432;51.902;10.844;2023-01-10T09:58:37;99641.63;;;7.20;100.00
53546;BME280;39432;51.902;10.844;2023-01-10T10:01:10;99648.25;;;7.24;100.00
53546;BME280;39432;51.902;10.844;2023-01-10T10:03:45;99656.28;;;7.19;100.00
53546;BME280;39432;51.902;10.844;2023-01-10T10:06:17;99661.53;;;7.32;100.00
53546;BME280;39432;51.902;10.844;2023-01-10T10:08:51;99658.94;;;7.37;100.00
53546;BME280;39432;51.902;10.844;2023-01-10T10:11:47;99663.06;;;7.51;100.00
53546;BME280;39432;51.902;10.844;2023-01-10T10:14:32;99660.09;;;7.41;100.00
53546;BME280;39432;51.902;10.844;2023-01-10T10:20:19;99671.59;;;7.66;100.00
53546;BME280;39432;51.902;10.844;2023-01-10T10:23:07;99669.00;;;7.72;100.00
53546;BME280;39432;51.902;10.844;2023-01-10T10:25:54;99662.72;;;7.83;100.00
53546;BME280;39432;51.902;10.844;2023-01-10T10:28:50;99670.44;;;7.86;100.00
53546;BME280;39432;51.902;10.844;2023-01-10T10:31:31;99677.28;;;7.65;100.00
53546;BME280;39432;51.902;10.844;2023-01-10T10:34:11;99674.66;;;7.35;100.00
53546;BME280;39432;51.902;10.844;2023-01-10T10:36:45;99680.91;;;7.24;100.00
53546;BME280;39432;51.902;10.844;2023-01-10T10:39:19;99671.22;;;7.28;100.00
53546;BME280;39432;51.902;10.844;2023-01-10T10:41:54;99681.41;;;7.32;100.00
53546;BME280;39432;51.902;10.844;2023-01-10T10:44:31;99676.41;;;7.18;100.00
53546;BME280;39432;51.902;10.844;2023-01-10T10:47:02;99682.78;;;7.11;100.00
53546;BME280;39432;51.902;10.844;2023-01-10T10:49:40;99692.84;;;7.11;100.00
53546;BME280;39432;51.902;10.844;2023-01-10T10:52:16;99680.41;;;7.03;100.00
53546;BME280;39432;51.902;10.844;2023-01-10T10:54:48;99688.94;;;7.19;100.00
53546;BME280;39432;51.902;10.844;2023-01-10T10:57:22;99684.44;;;7.12;100.00
53546;BME280;39432;51.902;10.844;2023-01-10T10:59:53;99691.59;;;7.37;100.00
53546;BME280;39432;51.902;10.844;2023-01-10T11:02:25;99696.16;;;7.25;100.00
53546;BME280;39432;51.902;10.844;2023-01-10T11:04:58;99695.41;;;7.48;100.00
53546;BME280;39432;51.902;10.844;2023-01-10T11:07:32;99684.31;;;7.19;100.00
53546;BME280;39432;51.902;10.844;2023-01-10T11:10:03;99692.84;;;7.11;100.00
53546;BME280;39432;51.902;10.844;2023-01-10T11:12:48;99696.03;;;7.20;100.00
53546;BME280;39432;51.902;10.844;2023-01-10T11:15:35;99702.41;;;7.13;100.00
53546;BME280;39432;51.902;10.844;2023-01-10T11:18:11;99706.72;;;7.33;100.00
53546;BME280;39432;51.902;10.844;2023-01-10T11:20:51;99703.75;;;7.34;100.00
53546;BME280;39432;51.902;10.844;2023-01-10T11:23:34;99709.53;;;7.15;100.00
53546;BME280;39432;51.902;10.844;2023-01-10T11:26:07;99716.78;;;7.21;100.00
53546;BME280;39432;51.902;10.844;2023-01-10T11:28:40;99707.97;;;7.07;100.00
53546;BME280;39432;51.902;10.844;2023-01-10T11:31:11;99709.47;;;7.03;100.00
53546;BME280;39432;51.902;10.844;2023-01-10T11:33:41;99712.31;;;6.96;100.00
53546;BME280;39432;51.902;10.844;2023-01-10T11:36:10;99703.78;;;6.93;100.00
53546;BME280;39432;51.902;10.844;2023-01-10T11:38:41;99710.38;;;6.85;100.00
53546;BME280;39432;51.902;10.844;2023-01-10T11:41:23;99719.72;;;6.89;100.00
53546;BME280;39432;51.902;10.844;2023-01-10T11:44:14;99723.47;;;7.06;100.00
53546;BME280;39432;51.902;10.844;2023-01-10T11:46:46;99732.09;;;7.03;100.00
53546;BME280;39432;51.902;10.844;2023-01-10T11:49:24;99728.25;;;7.23;100.00
53546;BME280;39432;51.902;10.844;2023-01-10T11:51:59;99717.81;;;7.20;100.00
53546;BME280;39432;51.902;10.844;2023-01-10T11:54:32;99718.59;;;7.50;100.00
53546;BME280;39432;51.902;10.844;2023-01-10T11:57:06;99721.88;;;7.52;100.00
53546;BME280;39432;51.902;10.844;2023-01-10T11:59:49;99718.25;;;7.70;100.00
53546;BME280;39432;51.902;10.844;2023-01-10T12:02:22;99716.25;;;7.65;100.00
53546;BME280;39432;51.902;10.844;2023-01-10T12:04:54;99715.41;;;7.53;100.00
53546;BME280;39432;51.902;10.844;2023-01-10T12:07:25;99720.59;;;7.55;100.00
53546;BME280;39432;51.902;10.844;2023-01-10T12:09:56;99709.97;;;7.65;100.00
53546;BME280;39432;51.902;10.844;2023-01-10T12:12:27;99709.03;;;7.71;100.00
53546;BME280;39432;51.902;10.844;2023-01-10T12:15:20;99714.47;;;7.83;100.00
53546;BME280;39432;51.902;10.844;2023-01-10T12:17:50;99712.69;;;7.65;100.00
53546;BME280;39432;51.902;10.844;2023-01-10T12:20:21;99706.06;;;7.73;100.00
53546;BME280;39432;51.902;10.844;2023-01-10T12:22:55;99709.38;;;7.98;100.00
53546;BME280;39432;51.902;10.844;2023-01-10T12:25:31;99697.75;;;7.91;100.00
53546;BME280;39432;51.902;10.844;2023-01-10T12:28:03;99700.38;;;7.86;100.00
53546;BME280;39432;51.902;10.844;2023-01-10T12:30:38;99710.91;;;7.82;100.00
53546;BME280;39432;51.902;10.844;2023-01-10T12:33:12;99711.63;;;7.78;100.00
53546;BME280;39432;51.902;10.844;2023-01-10T12:35:47;99712.69;;;7.77;100.00
53546;BME280;39432;51.902;10.844;2023-01-10T12:38:24;99719.34;;;7.81;100.00
53546;BME280;39432;51.902;10.844;2023-01-10T12:41:10;99714.94;;;7.91;100.00
53546;BME280;39432;51.902;10.844;2023-01-10T12:44:04;99730.69;;;7.78;100.00
53546;BME280;39432;51.902;10.844;2023-01-10T12:46:43;99731.50;;;8.02;100.00
53546;BME280;39432;51.902;10.844;2023-01-10T12:49:42;99727.38;;;7.99;100.00
53546;BME280;39432;51.902;10.844;2023-01-10T12:52:16;99722.38;;;7.73;100.00
53546;BME280;39432;51.902;10.844;2023-01-10T12:54:49;99717.06;;;7.66;100.00
53546;BME280;39432;51.902;10.844;2023-01-10T12:57:24;99718.84;;;7.60;100.00
53546;BME280;39432;51.902;10.844;2023-01-10T12:59:58;99715.53;;;7.58;100.00
53546;BME280;39432;51.902;10.844;2023-01-10T13:02:37;99717.88;;;7.55;100.00
53546;BME280;39432;51.902;10.844;2023-01-10T13:05:17;99721.56;;;7.49;100.00
53546;BME280;39432;51.902;10.844;2023-01-10T13:07:48;99716.94;;;7.49;100.00
53546;BME280;39432;51.902;10.844;2023-01-10T13:10:20;99717.50;;;7.39;100.00
53546;BME280;39432;51.902;10.844;2023-01-10T13:12:54;99724.63;;;7.52;100.00
53546;BME280;39432;51.902;10.844;2023-01-10T13:15:27;99728.91;;;7.60;100.00
53546;BME280;39432;51.902;10.844;2023-01-10T13:18:03;99724.75;;;7.57;100.00
53546;BME280;39432;51.902;10.844;2023-01-10T13:20:41;99727.00;;;7.72;100.00
53546;BME280;39432;51.902;10.844;2023-01-10T13:23:19;99732.56;;;7.65;100.00
53546;BME280;39432;51.902;10.844;2023-01-10T13:25:54;99727.25;;;7.94;100.00